Time;durP1;ratioP1;P1;durP2;ratioP2;P2;SDS_P1;SDS_P2;PMS_P1;PMS_P2;Temp;Humidity;BMP_temperature;BMP_pressure;BME280_temperature;BME280_humidity;BME280_pressure;Samples;Min_cycle;Max_cycle;Signal;HPM_P1;HPM_P2
2023/08/30 00:00:52;;;;;;;3.13;2.92;;;;;;;;;;5019452;28;20315;-70
2023/08/30 00:03:20;;;;;;;2.70;2.50;;;;;;;;;;5017956;28;20209;-72
2023/08/30 00:05:47;;;;;;;2.80;2.60;;;;;;;;;;5019819;28;20231;-72
2023/08/30 00:08:18;;;;;;;3.35;2.65;;;;;;;;;;5016284;28;20201;-71
2023/08/30 00:10:46;;;;;;;3.00;2.80;;;;;;;;;;5027618;28;20200;-72
2023/08/30 00:13:13;;;;;;;3.10;2.90;;;;;;;;;;5015823;28;20209;-71
2023/08/30 00:15:40;;;;;;;3.05;2.75;;;;;;;;;;5021251;28;20215;-70
2023/08/30 00:18:08;;;;;;;3.17;2.65;;;;;;;;;;5020117;28;20204;-70
2023/08/30 00:20:35;;;;;;;3.08;2.78;;;;;;;;;;5024956;28;20238;-71
2023/08/30 00:23:03;;;;;;;3.38;3.17;;;;;;;;;;5018779;28;20201;-71
2023/08/30 00:25:30;;;;;;;2.78;2.58;;;;;;;;;;5019799;28;20225;-71
2023/08/30 00:27:58;;;;;;;2.88;2.63;;;;;;;;;;5020664;28;20206;-71
2023/08/30 00:30:25;;;;;;;3.03;2.83;;;;;;;;;;5013444;28;20205;-71
2023/08/30 00:32:52;;;;;;;3.63;2.67;;;;;;;;;;5021427;28;20226;-71
2023/08/30 00:35:20;;;;;;;3.33;3.05;;;;;;;;;;5021721;28;20204;-71
2023/08/30 00:37:47;;;;;;;3.75;3.45;;;;;;;;;;5014018;28;20207;-71
2023/08/30 00:40:14;;;;;;;3.67;3.38;;;;;;;;;;5022130;28;20229;-71
2023/08/30 00:42:41;;;;;;;3.22;2.92;;;;;;;;;;5016084;28;20208;-71
2023/08/30 00:45:10;;;;;;;3.05;2.85;;;;;;;;;;5016894;28;20211;-70
2023/08/30 00:47:37;;;;;;;4.43;2.72;;;;;;;;;;5016609;28;20208;-71
2023/08/30 00:50:05;;;;;;;3.03;2.70;;;;;;;;;;5022461;28;20196;-71
2023/08/30 00:52:32;;;;;;;3.00;2.80;;;;;;;;;;5023602;28;20219;-71
2023/08/30 00:55:00;;;;;;;3.20;3.00;;;;;;;;;;5017229;28;20196;-71
2023/08/30 00:57:27;;;;;;;4.03;2.83;;;;;;;;;;5020669;28;20239;-71
2023/08/30 00:59:55;;;;;;;2.92;2.72;;;;;;;;;;5018079;28;20242;-71
2023/08/30 01:02:23;;;;;;;3.47;3.17;;;;;;;;;;5023405;28;20203;-64
2023/08/30 01:04:51;;;;;;;3.08;2.72;;;;;;;;;;5019948;28;20204;-65
2023/08/30 01:07:19;;;;;;;3.28;3.08;;;;;;;;;;5019208;28;20214;-64
2023/08/30 01:09:46;;;;;;;4.68;4.20;;;;;;;;;;5023929;28;20196;-64
2023/08/30 01:12:16;;;;;;;3.42;3.22;;;;;;;;;;5017346;28;20219;-65
2023/08/30 01:14:46;;;;;;;4.40;3.97;;;;;;;;;;5017707;28;20219;-64
2023/08/30 01:17:15;;;;;;;3.95;3.33;;;;;;;;;;5019383;28;22281;-64
2023/08/30 01:19:50;;;;;;;3.25;3.00;;;;;;;;;;5014632;28;20228;-64
2023/08/30 01:22:19;;;;;;;3.40;3.20;;;;;;;;;;5023542;28;20204;-64
2023/08/30 01:24:50;;;;;;;3.13;2.92;;;;;;;;;;5021690;28;20565;-65
2023/08/30 01:27:19;;;;;;;3.92;3.63;;;;;;;;;;5019529;28;20208;-64
2023/08/30 01:29:47;;;;;;;3.97;3.67;;;;;;;;;;5027088;28;20201;-64
2023/08/30 01:32:15;;;;;;;4.15;3.80;;;;;;;;;;5019785;28;20206;-64
2023/08/30 01:34:46;;;;;;;4.38;3.97;;;;;;;;;;5018440;28;20205;-64
2023/08/30 01:37:14;;;;;;;4.35;3.97;;;;;;;;;;5026878;28;20208;-64
2023/08/30 01:39:42;;;;;;;5.07;4.57;;;;;;;;;;5016842;28;20219;-64
2023/08/30 01:42:10;;;;;;;5.30;4.80;;;;;;;;;;5022752;28;20215;-64
2023/08/30 01:44:39;;;;;;;6.25;4.32;;;;;;;;;;5018184;28;20204;-64
2023/08/30 01:47:06;;;;;;;5.10;4.70;;;;;;;;;;5019938;28;20200;-64
2023/08/30 01:49:34;;;;;;;4.35;3.95;;;;;;;;;;5022135;28;20308;-64
2023/08/30 01:52:02;;;;;;;4.72;4.22;;;;;;;;;;5023099;28;20196;-64
2023/08/30 01:54:29;;;;;;;4.60;4.18;;;;;;;;;;5022061;28;20215;-64
2023/08/30 01:56:57;;;;;;;4.85;4.43;;;;;;;;;;5022487;28;20236;-64
2023/08/30 01:59:25;;;;;;;4.70;4.40;;;;;;;;;;5022819;28;20251;-64
2023/08/30 02:01:54;;;;;;;5.35;4.95;;;;;;;;;;5018810;28;20224;-64
2023/08/30 02:04:21;;;;;;;4.93;4.53;;;;;;;;;;5018895;28;20230;-64
2023/08/30 02:06:52;;;;;;;5.45;4.95;;;;;;;;;;5025154;28;20210;-71
2023/08/30 02:09:20;;;;;;;4.20;3.90;;;;;;;;;;5024354;28;20215;-71
2023/08/30 02:11:49;;;;;;;4.18;3.88;;;;;;;;;;5020963;28;20221;-71
2023/08/30 02:14:17;;;;;;;5.45;4.97;;;;;;;;;;5016817;28;20219;-71
2023/08/30 02:16:45;;;;;;;4.93;4.63;;;;;;;;;;5021359;28;20248;-71
2023/08/30 02:19:16;;;;;;;5.38;4.97;;;;;;;;;;5020092;28;20215;-71
2023/08/30 02:21:44;;;;;;;5.85;5.45;;;;;;;;;;5019660;28;20235;-71
2023/08/30 02:24:11;;;;;;;7.05;6.47;;;;;;;;;;5022406;28;20203;-71
2023/08/30 02:26:38;;;;;;;6.72;6.18;;;;;;;;;;5022507;28;20205;-71
2023/08/30 02:29:05;;;;;;;8.25;7.55;;;;;;;;;;5015565;28;20215;-71
2023/08/30 02:31:32;;;;;;;6.03;5.53;;;;;;;;;;5020571;28;20204;-71
2023/08/30 02:34:00;;;;;;;6.53;5.95;;;;;;;;;;5025469;28;20195;-71
2023/08/30 02:36:28;;;;;;;9.60;8.70;;;;;;;;;;5022207;28;20209;-71
2023/08/30 02:38:55;;;;;;;6.75;6.15;;;;;;;;;;5019694;28;20232;-70
2023/08/30 02:41:22;;;;;;;6.80;6.30;;;;;;;;;;5018778;28;20287;-71
2023/08/30 02:43:50;;;;;;;7.10;6.40;;;;;;;;;;5023825;28;20220;-71
2023/08/30 02:46:17;;;;;;;8.13;7.53;;;;;;;;;;5019299;28;20204;-71
2023/08/30 02:48:44;;;;;;;8.30;7.68;;;;;;;;;;5021198;28;20193;-71
2023/08/30 02:51:11;;;;;;;7.68;6.97;;;;;;;;;;5023421;28;20219;-71
2023/08/30 02:53:39;;;;;;;6.10;5.60;;;;;;;;;;5017827;28;20204;-71
2023/08/30 02:56:06;;;;;;;4.70;4.40;;;;;;;;;;5017746;28;20212;-71
2023/08/30 02:58:33;;;;;;;4.93;4.53;;;;;;;;;;5018913;28;20256;-72
2023/08/30 03:01:02;;;;;;;4.88;4.22;;;;;;;;;;5021483;28;20229;-70
2023/08/30 03:03:29;;;;;;;5.20;4.15;;;;;;;;;;5023230;28;20210;-71
2023/08/30 03:05:56;;;;;;;5.22;4.82;;;;;;;;;;5021070;28;20219;-71
2023/08/30 03:08:23;;;;;;;6.20;5.25;;;;;;;;;;5016747;28;20299;-71
2023/08/30 03:10:52;;;;;;;7.57;4.95;;;;;;;;;;5019424;28;20192;-71
2023/08/30 03:13:19;;;;;;;6.10;5.60;;;;;;;;;;5019948;28;20223;-71
2023/08/30 03:15:46;;;;;;;5.93;5.43;;;;;;;;;;5020046;28;20212;-69
2023/08/30 03:18:13;;;;;;;5.60;5.05;;;;;;;;;;5022028;28;20208;-64
2023/08/30 03:20:40;;;;;;;4.85;4.45;;;;;;;;;;5020456;28;20228;-64
2023/08/30 03:23:07;;;;;;;4.65;4.32;;;;;;;;;;5016966;28;20204;-64
2023/08/30 03:25:34;;;;;;;4.20;3.90;;;;;;;;;;5022211;28;20210;-64
2023/08/30 03:28:03;;;;;;;6.50;5.95;;;;;;;;;;5016893;28;20200;-64
2023/08/30 03:30:31;;;;;;;4.80;4.35;;;;;;;;;;5018789;28;20201;-64
2023/08/30 03:32:58;;;;;;;4.20;3.80;;;;;;;;;;5016919;28;20205;-64
2023/08/30 03:35:26;;;;;;;4.40;4.10;;;;;;;;;;5022991;28;20217;-64
2023/08/30 03:37:53;;;;;;;4.10;3.80;;;;;;;;;;5021408;28;20210;-64
2023/08/30 03:40:20;;;;;;;4.30;3.95;;;;;;;;;;5018329;28;20235;-64
2023/08/30 03:42:47;;;;;;;3.90;3.60;;;;;;;;;;5018896;28;20216;-64
2023/08/30 03:45:16;;;;;;;3.90;3.70;;;;;;;;;;5014088;28;20201;-64
2023/08/30 03:47:43;;;;;;;4.28;3.95;;;;;;;;;;5021570;28;20204;-64
2023/08/30 03:50:10;;;;;;;4.20;3.90;;;;;;;;;;5018510;28;20369;-64
2023/08/30 03:52:37;;;;;;;3.42;3.22;;;;;;;;;;5020048;28;20211;-65
2023/08/30 03:55:03;;;;;;;3.63;3.42;;;;;;;;;;5019034;28;20204;-65
2023/08/30 03:57:30;;;;;;;3.45;3.15;;;;;;;;;;5018037;28;20237;-65
2023/08/30 03:59:57;;;;;;;3.65;3.35;;;;;;;;;;5015184;28;20208;-64
2023/08/30 04:02:26;;;;;;;3.83;3.58;;;;;;;;;;5013527;28;20225;-64
2023/08/30 04:04:53;;;;;;;3.47;3.20;;;;;;;;;;5021270;28;20205;-65
2023/08/30 04:07:20;;;;;;;3.20;2.80;;;;;;;;;;5023590;28;20204;-64
2023/08/30 04:09:47;;;;;;;3.78;3.47;;;;;;;;;;5023462;28;20224;-64
2023/08/30 04:12:14;;;;;;;3.22;3.03;;;;;;;;;;5020362;28;20215;-65
2023/08/30 04:14:41;;;;;;;3.50;3.20;;;;;;;;;;5019552;28;20213;-64
2023/08/30 04:17:08;;;;;;;3.00;2.80;;;;;;;;;;5017838;28;20215;-64
2023/08/30 04:19:37;;;;;;;3.45;3.22;;;;;;;;;;5022244;28;20200;-64
2023/08/30 04:22:04;;;;;;;23.85;3.60;;;;;;;;;;5025115;28;20232;-65
2023/08/30 04:24:31;;;;;;;19.55;4.18;;;;;;;;;;5025151;28;20208;-65
2023/08/30 04:26:58;;;;;;;5.07;3.22;;;;;;;;;;5024961;28;20219;-64
2023/08/30 04:29:25;;;;;;;3.63;3.17;;;;;;;;;;5017521;28;20201;-64
2023/08/30 04:31:54;;;;;;;11.30;3.15;;;;;;;;;;5021019;28;20208;-65
2023/08/30 04:34:22;;;;;;;8.27;3.22;;;;;;;;;;5023235;28;20327;-64
2023/08/30 04:36:51;;;;;;;3.47;3.17;;;;;;;;;;5018864;28;20212;-65
2023/08/30 04:39:18;;;;;;;5.82;3.60;;;;;;;;;;5016393;28;20208;-65
2023/08/30 04:41:45;;;;;;;4.47;3.45;;;;;;;;;;5022734;28;20215;-65
2023/08/30 04:44:12;;;;;;;5.07;3.58;;;;;;;;;;5020704;28;20212;-66
2023/08/30 04:46:39;;;;;;;4.63;3.30;;;;;;;;;;5024320;28;20209;-66
2023/08/30 04:49:06;;;;;;;3.13;2.88;;;;;;;;;;5020256;28;20215;-65
2023/08/30 04:51:33;;;;;;;8.55;2.90;;;;;;;;;;5017411;28;20215;-65
2023/08/30 04:54:02;;;;;;;47.30;4.07;;;;;;;;;;5024205;28;20211;-66
2023/08/30 04:56:29;;;;;;;9.50;3.38;;;;;;;;;;5025629;28;20283;-65
2023/08/30 04:58:57;;;;;;;9.23;2.95;;;;;;;;;;5015657;28;20197;-65
2023/08/30 05:01:24;;;;;;;22.95;2.95;;;;;;;;;;5016098;28;20262;-65
2023/08/30 05:03:51;;;;;;;2.70;2.50;;;;;;;;;;5022178;28;20209;-65
2023/08/30 05:06:18;;;;;;;3.17;2.97;;;;;;;;;;5019073;28;20204;-65
2023/08/30 05:08:45;;;;;;;2.92;2.67;;;;;;;;;;5022556;28;20204;-66
2023/08/30 05:11:14;;;;;;;3.78;3.55;;;;;;;;;;5023004;28;20200;-65
2023/08/30 05:13:41;;;;;;;8.55;5.00;;;;;;;;;;5015186;28;20295;-66
2023/08/30 05:16:08;;;;;;;4.57;4.22;;;;;;;;;;5023441;28;20316;-67
2023/08/30 05:18:35;;;;;;;26.77;5.05;;;;;;;;;;5023095;28;20212;-65
2023/08/30 05:21:03;;;;;;;9.48;5.72;;;;;;;;;;5014819;28;20235;-65
2023/08/30 05:23:30;;;;;;;7.82;5.60;;;;;;;;;;5018736;28;20209;-65
2023/08/30 05:26:00;;;;;;;223.63;11.20;;;;;;;;;;5017688;28;20228;-65
2023/08/30 05:28:29;;;;;;;6.53;5.85;;;;;;;;;;5021832;28;20223;-66
2023/08/30 05:30:56;;;;;;;7.00;6.50;;;;;;;;;;5016556;28;20211;-65
2023/08/30 05:33:24;;;;;;;28.67;7.80;;;;;;;;;;5023487;28;20205;-66
2023/08/30 05:35:51;;;;;;;6.00;5.60;;;;;;;;;;5026409;28;20212;-65
2023/08/30 05:38:19;;;;;;;11.05;5.70;;;;;;;;;;5017348;28;20268;-73
2023/08/30 05:40:46;;;;;;;6.97;5.65;;;;;;;;;;5014203;28;20216;-71
2023/08/30 05:43:17;;;;;;;29.58;6.28;;;;;;;;;;5014898;28;20228;-73
2023/08/30 05:45:46;;;;;;;5.40;5.00;;;;;;;;;;5018918;28;20239;-72
2023/08/30 05:48:13;;;;;;;5.07;4.77;;;;;;;;;;5019710;28;20205;-72
2023/08/30 05:50:41;;;;;;;5.00;4.70;;;;;;;;;;5019372;28;20206;-72
2023/08/30 05:53:08;;;;;;;5.70;5.30;;;;;;;;;;5016609;28;20266;-73
2023/08/30 05:55:37;;;;;;;5.25;4.85;;;;;;;;;;5014310;28;20208;-72
2023/08/30 05:58:04;;;;;;;31.63;6.75;;;;;;;;;;5013629;28;20236;-73
2023/08/30 06:00:33;;;;;;;9.10;6.32;;;;;;;;;;5014765;28;20211;-72
2023/08/30 06:03:03;;;;;;;12.77;6.32;;;;;;;;;;5016373;28;20442;-73
2023/08/30 06:05:30;;;;;;;14.57;6.57;;;;;;;;;;5015860;28;20200;-73
2023/08/30 06:08:00;;;;;;;43.63;9.55;;;;;;;;;;5010229;28;20291;-72
2023/08/30 06:10:29;;;;;;;30.73;7.70;;;;;;;;;;5016438;28;20205;-72
2023/08/30 06:12:57;;;;;;;6.85;6.35;;;;;;;;;;5014941;28;20204;-71
2023/08/30 06:15:24;;;;;;;7.50;6.90;;;;;;;;;;5016944;28;21790;-72
2023/08/30 06:17:54;;;;;;;7.88;7.10;;;;;;;;;;5018040;28;20201;-73
2023/08/30 06:20:23;;;;;;;8.50;7.30;;;;;;;;;;5020397;28;20218;-72
2023/08/30 06:22:50;;;;;;;11.50;7.45;;;;;;;;;;5019517;28;20235;-73
2023/08/30 06:25:20;;;;;;;14.18;9.32;;;;;;;;;;5018642;28;20204;-73
2023/08/30 06:27:57;;;;;;;9.20;7.43;;;;;;;;;;5023601;28;20243;-73
2023/08/30 06:30:24;;;;;;;12.23;7.88;;;;;;;;;;5018647;28;20203;-73
2023/08/30 06:32:52;;;;;;;11.45;10.07;;;;;;;;;;5025094;28;20200;-72
2023/08/30 06:35:19;;;;;;;8.57;7.85;;;;;;;;;;5015918;28;20331;-73
2023/08/30 06:37:48;;;;;;;73.90;13.40;;;;;;;;;;5018252;28;20200;-72
2023/08/30 06:40:15;;;;;;;29.92;13.32;;;;;;;;;;5014503;28;20307;-73
2023/08/30 06:42:42;;;;;;;59.00;15.45;;;;;;;;;;5020080;28;20228;-72
2023/08/30 06:45:10;;;;;;;56.95;15.98;;;;;;;;;;5015816;28;20208;-72
2023/08/30 06:47:37;;;;;;;27.52;12.77;;;;;;;;;;5013641;28;20211;-66
2023/08/30 06:50:04;;;;;;;11.30;10.20;;;;;;;;;;5012957;28;20295;-65
2023/08/30 06:52:34;;;;;;;10.38;9.40;;;;;;;;;;5011455;28;20200;-65
2023/08/30 06:55:03;;;;;;;10.35;9.35;;;;;;;;;;5019262;28;20196;-65
2023/08/30 06:57:32;;;;;;;12.73;11.32;;;;;;;;;;5016928;28;20263;-65
2023/08/30 07:00:04;;;;;;;13.77;11.60;;;;;;;;;;5022405;28;20208;-65
2023/08/30 07:02:32;;;;;;;13.93;12.32;;;;;;;;;;5021175;28;20255;-66
2023/08/30 07:04:59;;;;;;;22.80;13.40;;;;;;;;;;5015459;28;20203;-65
2023/08/30 07:07:26;;;;;;;18.30;13.05;;;;;;;;;;5011998;28;20215;-65
2023/08/30 07:09:53;;;;;;;15.95;12.68;;;;;;;;;;5022206;28;20197;-65
2023/08/30 07:12:22;;;;;;;14.35;12.85;;;;;;;;;;5018330;28;20211;-66
2023/08/30 07:14:52;;;;;;;12.98;11.68;;;;;;;;;;5019030;28;20204;-65
2023/08/30 07:17:19;;;;;;;14.15;12.65;;;;;;;;;;5016879;28;20219;-65
2023/08/30 07:19:48;;;;;;;12.75;11.60;;;;;;;;;;5015864;28;20208;-65
2023/08/30 07:22:16;;;;;;;16.92;15.13;;;;;;;;;;5017234;28;20216;-65
2023/08/30 07:24:43;;;;;;;19.08;15.35;;;;;;;;;;5014887;28;20210;-65
2023/08/30 07:27:11;;;;;;;21.48;16.13;;;;;;;;;;5014938;28;20208;-65
2023/08/30 07:29:41;;;;;;;17.33;14.52;;;;;;;;;;5014029;28;20323;-65
2023/08/30 07:32:09;;;;;;;13.43;12.02;;;;;;;;;;5015977;28;20197;-65
2023/08/30 07:34:36;;;;;;;11.82;10.63;;;;;;;;;;5020279;28;20204;-65
2023/08/30 07:37:04;;;;;;;16.27;14.68;;;;;;;;;;5018276;28;20205;-66
2023/08/30 07:39:31;;;;;;;16.75;14.93;;;;;;;;;;5029381;28;20208;-66
2023/08/30 07:41:58;;;;;;;15.00;13.50;;;;;;;;;;5020464;28;20275;-65
2023/08/30 07:44:26;;;;;;;15.35;13.70;;;;;;;;;;5026389;28;20211;-70
2023/08/30 07:46:56;;;;;;;14.23;12.82;;;;;;;;;;5022859;28;20211;-65
2023/08/30 07:49:24;;;;;;;15.68;14.18;;;;;;;;;;5021603;28;20212;-65
2023/08/30 07:51:51;;;;;;;15.70;14.05;;;;;;;;;;5023140;28;20200;-66
2023/08/30 07:54:18;;;;;;;14.73;13.23;;;;;;;;;;5022738;28;20216;-65
2023/08/30 07:56:48;;;;;;;16.27;14.30;;;;;;;;;;5027010;28;20240;-70
2023/08/30 07:59:15;;;;;;;15.68;14.10;;;;;;;;;;5021528;28;20207;-72
2023/08/30 08:01:43;;;;;;;14.35;13.02;;;;;;;;;;5018123;28;20237;-72
2023/08/30 08:04:12;;;;;;;14.70;13.30;;;;;;;;;;5020636;28;20204;-72
2023/08/30 08:06:39;;;;;;;14.88;13.43;;;;;;;;;;5022218;28;20196;-72
2023/08/30 08:09:08;;;;;;;15.18;13.57;;;;;;;;;;5023643;28;20215;-70
2023/08/30 08:11:35;;;;;;;14.98;13.57;;;;;;;;;;5023497;28;20240;-71
2023/08/30 08:14:03;;;;;;;15.77;14.18;;;;;;;;;;5024271;28;20205;-71
2023/08/30 08:16:33;;;;;;;16.90;14.68;;;;;;;;;;5017286;28;20212;-70
2023/08/30 08:19:02;;;;;;;15.98;14.27;;;;;;;;;;5022102;28;20197;-71
2023/08/30 08:21:31;;;;;;;14.65;13.25;;;;;;;;;;5024959;28;20243;-70
2023/08/30 08:23:58;;;;;;;14.57;13.18;;;;;;;;;;5026520;28;20228;-72
2023/08/30 08:26:25;;;;;;;14.73;13.35;;;;;;;;;;5023817;28;20215;-72
2023/08/30 08:28:54;;;;;;;13.70;12.35;;;;;;;;;;5015861;28;20684;-72
2023/08/30 08:31:21;;;;;;;13.90;12.43;;;;;;;;;;5020751;28;20211;-70
2023/08/30 08:33:48;;;;;;;13.07;11.88;;;;;;;;;;5019285;28;20267;-70
2023/08/30 08:36:18;;;;;;;12.23;11.02;;;;;;;;;;5021311;28;20220;-72
2023/08/30 08:38:47;;;;;;;12.68;11.48;;;;;;;;;;5027622;28;20204;-71
2023/08/30 08:41:16;;;;;;;11.70;10.60;;;;;;;;;;5023217;28;20200;-71
2023/08/30 08:43:44;;;;;;;10.90;9.80;;;;;;;;;;5019264;28;20229;-72
2023/08/30 08:46:12;;;;;;;12.00;10.80;;;;;;;;;;5017851;28;20197;-71
2023/08/30 08:48:41;;;;;;;12.02;10.77;;;;;;;;;;5021101;28;20205;-70
2023/08/30 08:51:10;;;;;;;11.73;10.52;;;;;;;;;;5018281;28;20216;-70
2023/08/30 08:53:39;;;;;;;11.98;10.77;;;;;;;;;;5019700;28;20204;-71
2023/08/30 08:56:09;;;;;;;10.82;9.82;;;;;;;;;;5022025;28;20224;-71
2023/08/30 08:58:38;;;;;;;11.50;10.23;;;;;;;;;;5019085;28;20567;-70
2023/08/30 09:01:09;;;;;;;12.70;10.13;;;;;;;;;;5016925;28;20208;-71
2023/08/30 09:03:36;;;;;;;10.75;9.82;;;;;;;;;;5016020;28;20247;-71
2023/08/30 09:06:04;;;;;;;10.57;9.55;;;;;;;;;;5015618;28;20224;-71
2023/08/30 09:08:34;;;;;;;10.80;9.80;;;;;;;;;;5018213;28;20323;-70
2023/08/30 09:11:02;;;;;;;10.02;8.98;;;;;;;;;;5020179;28;20246;-69
2023/08/30 09:13:31;;;;;;;10.10;9.07;;;;;;;;;;5020290;28;20197;-70
2023/08/30 09:15:59;;;;;;;10.35;8.57;;;;;;;;;;5013989;28;20287;-70
2023/08/30 09:18:32;;;;;;;8.80;7.90;;;;;;;;;;5018626;28;20212;-65
2023/08/30 09:21:06;;;;;;;9.25;8.25;;;;;;;;;;5022396;28;20207;-64
2023/08/30 09:23:34;;;;;;;8.75;7.80;;;;;;;;;;5017211;28;20259;-64
2023/08/30 09:26:02;;;;;;;8.20;6.55;;;;;;;;;;5017516;28;20207;-65
2023/08/30 09:28:32;;;;;;;8.25;7.45;;;;;;;;;;5021723;28;20258;-65
2023/08/30 09:31:03;;;;;;;8.57;7.50;;;;;;;;;;5016041;28;20200;-64
2023/08/30 09:33:34;;;;;;;9.00;7.15;;;;;;;;;;5012878;28;20280;-65
2023/08/30 09:36:02;;;;;;;7.25;6.65;;;;;;;;;;5022191;28;20208;-64
2023/08/30 09:38:29;;;;;;;7.85;6.68;;;;;;;;;;5015375;28;20204;-64
2023/08/30 09:41:05;;;;;;;8.20;7.38;;;;;;;;;;5019189;28;20220;-64
2023/08/30 09:43:33;;;;;;;7.32;6.72;;;;;;;;;;5017014;28;20223;-64
2023/08/30 09:46:04;;;;;;;7.72;6.88;;;;;;;;;;5019260;28;20270;-65
2023/08/30 09:48:33;;;;;;;7.45;6.43;;;;;;;;;;5018584;28;20275;-65
2023/08/30 09:51:01;;;;;;;6.60;5.70;;;;;;;;;;5021296;28;20200;-64
2023/08/30 09:53:28;;;;;;;6.90;6.20;;;;;;;;;;5021445;28;20203;-64
2023/08/30 09:55:58;;;;;;;6.43;5.82;;;;;;;;;;5018159;28;20204;-63
2023/08/30 09:58:27;;;;;;;8.82;6.50;;;;;;;;;;5023653;28;20240;-64
2023/08/30 10:00:55;;;;;;;7.38;5.72;;;;;;;;;;5024494;28;20195;-64
2023/08/30 10:03:24;;;;;;;6.22;5.63;;;;;;;;;;5018161;28;20278;-64
2023/08/30 10:05:51;;;;;;;5.57;5.07;;;;;;;;;;5025264;28;20207;-64
2023/08/30 10:08:19;;;;;;;6.45;5.85;;;;;;;;;;5025465;28;20208;-64
2023/08/30 10:10:47;;;;;;;7.30;5.53;;;;;;;;;;5022985;28;20200;-65
2023/08/30 10:13:15;;;;;;;5.90;5.30;;;;;;;;;;5017207;28;20201;-65
2023/08/30 10:15:44;;;;;;;5.72;4.30;;;;;;;;;;5022239;28;20239;-64
2023/08/30 10:18:12;;;;;;;5.93;4.72;;;;;;;;;;5025933;28;20206;-63
2023/08/30 10:20:41;;;;;;;4.95;4.50;;;;;;;;;;5017602;28;20291;-64
2023/08/30 10:23:10;;;;;;;7.28;5.05;;;;;;;;;;5023298;28;20231;-64
2023/08/30 10:25:38;;;;;;;7.30;5.13;;;;;;;;;;5020837;28;20201;-66
2023/08/30 10:28:05;;;;;;;5.65;4.80;;;;;;;;;;5013553;28;20212;-68
2023/08/30 10:30:33;;;;;;;4.57;4.18;;;;;;;;;;5021546;28;20205;-68
2023/08/30 10:33:00;;;;;;;7.13;5.00;;;;;;;;;;5014579;28;20203;-67
2023/08/30 10:35:27;;;;;;;5.32;4.40;;;;;;;;;;5014949;28;20201;-68
2023/08/30 10:38:01;;;;;;;4.78;4.38;;;;;;;;;;5020351;28;20196;-68
2023/08/30 10:40:28;;;;;;;5.93;4.80;;;;;;;;;;5016658;28;20213;-68
2023/08/30 10:43:02;;;;;;;5.00;4.50;;;;;;;;;;5012548;28;20315;-68
2023/08/30 10:45:30;;;;;;;5.50;4.95;;;;;;;;;;5018430;28;20287;-67
2023/08/30 10:47:58;;;;;;;4.82;4.43;;;;;;;;;;5017456;28;20207;-67
2023/08/30 10:50:31;;;;;;;5.75;4.45;;;;;;;;;;5021467;28;20316;-67
2023/08/30 10:53:00;;;;;;;4.93;4.25;;;;;;;;;;5026320;28;20208;-67
2023/08/30 10:55:27;;;;;;;5.13;4.28;;;;;;;;;;5012400;28;20201;-67
2023/08/30 10:58:02;;;;;;;5.25;4.20;;;;;;;;;;5022202;28;20236;-68
2023/08/30 11:00:30;;;;;;;6.20;4.10;;;;;;;;;;5019345;28;20203;-68
2023/08/30 11:02:57;;;;;;;4.30;3.88;;;;;;;;;;5023108;28;20204;-68
2023/08/30 11:05:25;;;;;;;6.22;4.30;;;;;;;;;;5022450;28;20214;-69
2023/08/30 11:07:53;;;;;;;6.70;5.43;;;;;;;;;;5015231;28;20201;-69
2023/08/30 11:10:22;;;;;;;6.78;4.95;;;;;;;;;;5013314;28;20212;-69
2023/08/30 11:12:50;;;;;;;4.90;4.45;;;;;;;;;;5020106;28;20295;-69
2023/08/30 11:15:17;;;;;;;4.20;3.90;;;;;;;;;;5020181;28;20268;-69
2023/08/30 11:17:45;;;;;;;3.80;3.40;;;;;;;;;;5022469;28;20296;-68
2023/08/30 11:20:13;;;;;;;5.35;3.40;;;;;;;;;;5026324;28;20235;-67
2023/08/30 11:22:41;;;;;;;6.00;2.88;;;;;;;;;;5022739;28;20203;-68
2023/08/30 11:25:09;;;;;;;6.07;3.17;;;;;;;;;;5024555;28;20243;-68
2023/08/30 11:27:38;;;;;;;3.90;2.92;;;;;;;;;;5025615;28;20215;-68
2023/08/30 11:30:06;;;;;;;3.55;3.10;;;;;;;;;;5019318;28;20231;-68
2023/08/30 11:32:34;;;;;;;3.17;2.88;;;;;;;;;;5026046;28;20231;-69
2023/08/30 11:35:01;;;;;;;3.53;2.97;;;;;;;;;;5020569;28;20223;-68
2023/08/30 11:37:29;;;;;;;5.22;3.20;;;;;;;;;;5024814;28;20209;-69
2023/08/30 11:39:56;;;;;;;4.07;2.80;;;;;;;;;;5025603;28;20338;-68
2023/08/30 11:42:24;;;;;;;3.17;2.67;;;;;;;;;;5022064;28;20212;-69
2023/08/30 11:44:52;;;;;;;4.85;2.85;;;;;;;;;;5024260;28;20235;-69
2023/08/30 11:47:20;;;;;;;4.50;2.70;;;;;;;;;;5021763;28;20220;-68
2023/08/30 11:49:48;;;;;;;3.55;2.70;;;;;;;;;;5015099;28;20295;-69
2023/08/30 11:52:15;;;;;;;3.60;2.60;;;;;;;;;;5024119;28;20259;-69
2023/08/30 11:54:43;;;;;;;4.47;2.85;;;;;;;;;;5021232;28;20208;-67
2023/08/30 11:57:11;;;;;;;3.00;2.65;;;;;;;;;;5022128;28;20240;-69
2023/08/30 11:59:38;;;;;;;6.72;2.55;;;;;;;;;;5022420;28;20292;-67
2023/08/30 12:02:08;;;;;;;5.50;2.92;;;;;;;;;;5025825;28;20266;-68
2023/08/30 12:04:41;;;;;;;7.78;2.75;;;;;;;;;;5023119;28;20212;-68
2023/08/30 12:07:09;;;;;;;4.57;2.70;;;;;;;;;;5023866;28;20209;-67
2023/08/30 12:09:36;;;;;;;5.28;2.90;;;;;;;;;;5021788;28;20259;-67
2023/08/30 12:12:07;;;;;;;4.00;2.63;;;;;;;;;;5019366;28;20213;-67
2023/08/30 12:14:35;;;;;;;2.88;2.58;;;;;;;;;;5024416;28;20232;-67
2023/08/30 12:17:03;;;;;;;3.45;2.50;;;;;;;;;;5025821;28;20212;-68
2023/08/30 12:19:32;;;;;;;3.88;3.20;;;;;;;;;;5022978;28;20205;-67
2023/08/30 12:22:05;;;;;;;4.60;2.30;;;;;;;;;;5023353;28;20204;-67
2023/08/30 12:24:41;;;;;;;4.28;2.95;;;;;;;;;;5027680;28;20311;-67
2023/08/30 12:27:09;;;;;;;4.18;3.00;;;;;;;;;;5023287;28;20213;-68
2023/08/30 12:29:36;;;;;;;4.22;2.53;;;;;;;;;;5019149;28;20213;-68
2023/08/30 12:32:03;;;;;;;2.88;2.40;;;;;;;;;;5022592;28;20231;-68
2023/08/30 12:34:32;;;;;;;4.50;2.55;;;;;;;;;;5019305;28;20209;-68
2023/08/30 12:36:59;;;;;;;4.40;2.60;;;;;;;;;;5024569;28;20220;-68
2023/08/30 12:39:27;;;;;;;3.90;2.42;;;;;;;;;;5020390;28;20227;-69
2023/08/30 12:41:54;;;;;;;3.50;2.13;;;;;;;;;;5022468;28;20200;-68
2023/08/30 12:44:21;;;;;;;5.63;2.47;;;;;;;;;;5023816;28;20228;-68
2023/08/30 12:46:49;;;;;;;3.42;2.60;;;;;;;;;;5017121;28;20204;-68
2023/08/30 12:49:16;;;;;;;4.68;2.60;;;;;;;;;;5013804;28;20242;-68
2023/08/30 12:51:44;;;;;;;2.63;2.40;;;;;;;;;;5015739;28;20316;-68
2023/08/30 12:54:12;;;;;;;4.18;2.58;;;;;;;;;;5020380;28;20208;-68
2023/08/30 12:56:39;;;;;;;3.75;2.60;;;;;;;;;;5020389;28;20244;-68
2023/08/30 12:59:06;;;;;;;4.80;2.83;;;;;;;;;;5021474;28;20204;-68
2023/08/30 13:01:33;;;;;;;5.70;2.55;;;;;;;;;;5019662;28;20204;-68
2023/08/30 13:04:00;;;;;;;4.35;2.72;;;;;;;;;;5017932;28;20251;-69
2023/08/30 13:06:27;;;;;;;3.88;2.97;;;;;;;;;;5020342;28;20295;-70
2023/08/30 13:08:55;;;;;;;4.10;2.83;;;;;;;;;;5016827;28;20212;-68
2023/08/30 13:11:26;;;;;;;4.75;3.58;;;;;;;;;;5024118;28;20231;-68
2023/08/30 13:13:53;;;;;;;4.18;3.30;;;;;;;;;;5023085;28;20234;-69
2023/08/30 13:16:20;;;;;;;4.95;3.38;;;;;;;;;;5018369;28;20315;-69
2023/08/30 13:18:49;;;;;;;4.05;3.55;;;;;;;;;;5019687;28;20205;-69
2023/08/30 13:21:16;;;;;;;4.13;3.72;;;;;;;;;;5020555;28;20210;-68
2023/08/30 13:23:43;;;;;;;4.13;3.72;;;;;;;;;;5016133;28;20210;-67
2023/08/30 13:26:13;;;;;;;6.65;3.97;;;;;;;;;;5016327;28;20204;-69
2023/08/30 13:28:40;;;;;;;5.68;4.55;;;;;;;;;;5018856;28;20214;-68
2023/08/30 13:31:08;;;;;;;4.90;4.50;;;;;;;;;;5019261;28;20215;-68
2023/08/30 13:33:35;;;;;;;5.30;4.68;;;;;;;;;;5020928;28;20256;-70
2023/08/30 13:36:03;;;;;;;4.90;4.40;;;;;;;;;;5020316;28;20197;-69
2023/08/30 13:38:30;;;;;;;5.43;3.90;;;;;;;;;;5016248;28;20208;-69
2023/08/30 13:41:00;;;;;;;5.13;3.97;;;;;;;;;;5020168;28;20559;-69
2023/08/30 13:43:31;;;;;;;4.45;3.60;;;;;;;;;;5018167;28;20209;-68
2023/08/30 13:46:01;;;;;;;3.97;3.67;;;;;;;;;;5017243;28;20230;-68
2023/08/30 13:48:28;;;;;;;4.55;3.58;;;;;;;;;;5014025;28;20216;-69
2023/08/30 13:50:56;;;;;;;3.40;3.10;;;;;;;;;;5013764;28;20212;-69
2023/08/30 13:53:24;;;;;;;4.00;3.60;;;;;;;;;;5014799;28;20204;-70
2023/08/30 13:55:51;;;;;;;7.13;4.03;;;;;;;;;;5021029;28;20206;-69
2023/08/30 13:58:19;;;;;;;12.13;4.97;;;;;;;;;;5023620;28;20241;-64
2023/08/30 14:00:47;;;;;;;5.75;4.00;;;;;;;;;;5021673;28;20224;-65
2023/08/30 14:03:15;;;;;;;4.72;3.15;;;;;;;;;;5021185;28;20263;-64
2023/08/30 14:05:42;;;;;;;3.92;3.25;;;;;;;;;;5018033;28;20315;-66
2023/08/30 14:08:09;;;;;;;3.38;3.17;;;;;;;;;;5016314;28;20205;-65
2023/08/30 14:10:36;;;;;;;3.25;2.95;;;;;;;;;;5013398;28;20725;-64
2023/08/30 14:13:04;;;;;;;4.90;3.40;;;;;;;;;;5019550;28;20287;-64
2023/08/30 14:15:32;;;;;;;3.28;3.00;;;;;;;;;;5013769;28;20193;-66
2023/08/30 14:18:01;;;;;;;3.03;2.72;;;;;;;;;;5017692;28;20238;-64
2023/08/30 14:20:29;;;;;;;5.13;2.80;;;;;;;;;;5020901;28;20215;-64
2023/08/30 14:22:57;;;;;;;2.90;2.70;;;;;;;;;;5016757;28;20239;-64
2023/08/30 14:25:24;;;;;;;2.53;2.33;;;;;;;;;;5023187;28;20354;-64
2023/08/30 14:27:51;;;;;;;3.08;2.88;;;;;;;;;;5016496;28;20212;-64
2023/08/30 14:30:18;;;;;;;2.72;2.60;;;;;;;;;;5018319;28;20274;-65
2023/08/30 14:32:46;;;;;;;2.70;2.50;;;;;;;;;;5016309;28;20208;-64
2023/08/30 14:35:16;;;;;;;2.80;2.58;;;;;;;;;;5017085;28;20204;-64
2023/08/30 14:37:44;;;;;;;2.42;2.20;;;;;;;;;;5013765;28;20255;-66
2023/08/30 14:40:11;;;;;;;2.20;2.00;;;;;;;;;;5014918;28;20199;-67
2023/08/30 14:42:39;;;;;;;2.92;2.15;;;;;;;;;;5015292;28;20286;-66